sensor_id;sensor_type;location;lat;lon;timestamp;P1;durP1;ratioP1;P2;durP2;ratioP2
40501;SDS011;29631;49.168;9.848;2023-03-01T00:01:13;8.75;;;7.85;;
40501;SDS011;29631;49.168;9.848;2023-03-01T00:03:45;8.88;;;7.97;;
40501;SDS011;29631;49.168;9.848;2023-03-01T00:06:11;9.30;;;8.35;;
40501;SDS011;29631;49.168;9.848;2023-03-01T00:08:37;12.23;;;8.38;;
40501;SDS011;29631;49.168;9.848;2023-03-01T00:11:07;9.02;;;8.13;;
40501;SDS011;29631;49.168;9.848;2023-03-01T00:13:38;10.48;;;8.90;;
40501;SDS011;29631;49.168;9.848;2023-03-01T00:16:09;9.20;;;8.30;;
40501;SDS011;29631;49.168;9.848;2023-03-01T00:18:39;9.25;;;8.35;;
40501;SDS011;29631;49.168;9.848;2023-03-01T00:21:05;8.70;;;7.90;;
40501;SDS011;29631;49.168;9.848;2023-03-01T00:23:33;8.65;;;7.95;;
40501;SDS011;29631;49.168;9.848;2023-03-01T00:26:00;9.25;;;8.10;;
40501;SDS011;29631;49.168;9.848;2023-03-01T00:28:25;10.52;;;9.05;;
40501;SDS011;29631;49.168;9.848;2023-03-01T00:30:51;9.35;;;8.45;;
40501;SDS011;29631;49.168;9.848;2023-03-01T00:33:17;10.25;;;8.02;;
40501;SDS011;29631;49.168;9.848;2023-03-01T00:35:43;9.18;;;8.23;;
40501;SDS011;29631;49.168;9.848;2023-03-01T00:38:09;9.27;;;8.38;;
40501;SDS011;29631;49.168;9.848;2023-03-01T00:40:35;9.23;;;8.20;;
40501;SDS011;29631;49.168;9.848;2023-03-01T00:43:01;11.52;;;8.57;;
40501;SDS011;29631;49.168;9.848;2023-03-01T00:45:28;9.20;;;8.25;;
40501;SDS011;29631;49.168;9.848;2023-03-01T00:47:56;8.57;;;7.75;;
40501;SDS011;29631;49.168;9.848;2023-03-01T00:50:22;10.77;;;8.02;;
40501;SDS011;29631;49.168;9.848;2023-03-01T00:52:52;8.18;;;7.47;;
40501;SDS011;29631;49.168;9.848;2023-03-01T00:55:19;9.23;;;8.32;;
40501;SDS011;29631;49.168;9.848;2023-03-01T00:57:46;9.27;;;8.32;;
40501;SDS011;29631;49.168;9.848;2023-03-01T01:00:11;9.27;;;8.38;;
40501;SDS011;29631;49.168;9.848;2023-03-01T01:02:37;8.30;;;7.60;;
40501;SDS011;29631;49.168;9.848;2023-03-01T01:05:03;9.65;;;8.55;;
40501;SDS011;29631;49.168;9.848;2023-03-01T01:07:30;9.25;;;8.35;;
40501;SDS011;29631;49.168;9.848;2023-03-01T01:09:55;8.50;;;7.70;;
40501;SDS011;29631;49.168;9.848;2023-03-01T01:12:21;9.27;;;8.35;;
40501;SDS011;29631;49.168;9.848;2023-03-01T01:14:47;8.73;;;7.90;;
40501;SDS011;29631;49.168;9.848;2023-03-01T01:17:13;10.43;;;8.43;;
40501;SDS011;29631;49.168;9.848;2023-03-01T01:19:38;8.68;;;7.88;;
40501;SDS011;29631;49.168;9.848;2023-03-01T01:22:04;9.00;;;8.15;;
40501;SDS011;29631;49.168;9.848;2023-03-01T01:24:30;9.27;;;8.40;;
40501;SDS011;29631;49.168;9.848;2023-03-01T01:26:56;8.60;;;7.80;;
40501;SDS011;29631;49.168;9.848;2023-03-01T01:29:22;9.13;;;8.32;;
40501;SDS011;29631;49.168;9.848;2023-03-01T01:31:48;8.55;;;7.68;;
40501;SDS011;29631;49.168;9.848;2023-03-01T01:34:15;9.48;;;8.48;;
40501;SDS011;29631;49.168;9.848;2023-03-01T01:36:44;9.63;;;8.45;;
40501;SDS011;29631;49.168;9.848;2023-03-01T01:39:14;9.30;;;8.40;;
40501;SDS011;29631;49.168;9.848;2023-03-01T01:41:40;9.23;;;8.25;;
40501;SDS011;29631;49.168;9.848;2023-03-01T01:46:55;9.00;;;8.10;;
40501;SDS011;29631;49.168;9.848;2023-03-01T01:52:13;8.23;;;7.53;;
40501;SDS011;29631;49.168;9.848;2023-03-01T01:55:04;8.65;;;7.85;;
40501;SDS011;29631;49.168;9.848;2023-03-01T01:57:34;9.20;;;8.23;;
40501;SDS011;29631;49.168;9.848;2023-03-01T02:00:18;9.02;;;8.13;;
40501;SDS011;29631;49.168;9.848;2023-03-01T02:02:52;8.93;;;8.02;;
40501;SDS011;29631;49.168;9.848;2023-03-01T02:05:29;8.85;;;7.95;;
40501;SDS011;29631;49.168;9.848;2023-03-01T02:08:11;8.45;;;7.50;;
40501;SDS011;29631;49.168;9.848;2023-03-01T02:10:39;9.10;;;8.30;;
40501;SDS011;29631;49.168;9.848;2023-03-01T02:13:06;9.55;;;8.55;;
40501;SDS011;29631;49.168;9.848;2023-03-01T02:15:32;8.95;;;7.82;;
40501;SDS011;29631;49.168;9.848;2023-03-01T02:18:01;9.80;;;8.75;;
40501;SDS011;29631;49.168;9.848;2023-03-01T02:20:37;10.63;;;8.77;;
40501;SDS011;29631;49.168;9.848;2023-03-01T02:23:22;9.20;;;8.20;;
40501;SDS011;29631;49.168;9.848;2023-03-01T02:25:52;9.93;;;8.93;;
40501;SDS011;29631;49.168;9.848;2023-03-01T02:28:36;9.68;;;8.40;;
40501;SDS011;29631;49.168;9.848;2023-03-01T02:31:06;10.02;;;8.65;;
40501;SDS011;29631;49.168;9.848;2023-03-01T02:33:53;9.48;;;8.57;;
40501;SDS011;29631;49.168;9.848;2023-03-01T02:36:24;9.43;;;8.40;;
40501;SDS011;29631;49.168;9.848;2023-03-01T02:38:58;9.25;;;8.32;;
40501;SDS011;29631;49.168;9.848;2023-03-01T02:41:28;10.45;;;8.98;;
40501;SDS011;29631;49.168;9.848;2023-03-01T02:43:59;9.95;;;8.98;;
40501;SDS011;29631;49.168;9.848;2023-03-01T02:46:25;10.40;;;9.40;;
40501;SDS011;29631;49.168;9.848;2023-03-01T02:51:28;9.60;;;8.63;;
40501;SDS011;29631;49.168;9.848;2023-03-01T02:57:20;8.85;;;7.97;;
40501;SDS011;29631;49.168;9.848;2023-03-01T02:59:48;9.40;;;8.40;;
40501;SDS011;29631;49.168;9.848;2023-03-01T03:02:18;9.15;;;8.25;;
40501;SDS011;29631;49.168;9.848;2023-03-01T03:05:01;10.15;;;8.93;;
40501;SDS011;29631;49.168;9.848;2023-03-01T03:07:36;9.48;;;8.48;;
40501;SDS011;29631;49.168;9.848;2023-03-01T03:10:05;9.85;;;8.88;;
40501;SDS011;29631;49.168;9.848;2023-03-01T03:12:36;10.07;;;8.95;;
40501;SDS011;29631;49.168;9.848;2023-03-01T03:15:04;10.38;;;9.48;;
40501;SDS011;29631;49.168;9.848;2023-03-01T03:17:34;9.98;;;8.85;;
40501;SDS011;29631;49.168;9.848;2023-03-01T03:20:03;10.07;;;9.07;;
40501;SDS011;29631;49.168;9.848;2023-03-01T03:22:30;10.45;;;9.40;;
40501;SDS011;29631;49.168;9.848;2023-03-01T03:24:58;10.18;;;9.18;;
40501;SDS011;29631;49.168;9.848;2023-03-01T03:27:24;12.40;;;8.93;;
40501;SDS011;29631;49.168;9.848;2023-03-01T03:29:50;10.73;;;8.98;;
40501;SDS011;29631;49.168;9.848;2023-03-01T03:32:16;9.85;;;8.75;;
40501;SDS011;29631;49.168;9.848;2023-03-01T03:34:42;10.18;;;9.18;;
40501;SDS011;29631;49.168;9.848;2023-03-01T03:37:07;9.85;;;8.85;;
40501;SDS011;29631;49.168;9.848;2023-03-01T03:39:53;11.70;;;9.18;;
40501;SDS011;29631;49.168;9.848;2023-03-01T03:42:19;10.27;;;8.90;;
40501;SDS011;29631;49.168;9.848;2023-03-01T03:44:47;11.18;;;9.52;;
40501;SDS011;29631;49.168;9.848;2023-03-01T03:47:13;11.40;;;9.80;;
40501;SDS011;29631;49.168;9.848;2023-03-01T03:49:39;10.65;;;9.55;;
40501;SDS011;29631;49.168;9.848;2023-03-01T03:52:05;10.98;;;9.52;;
40501;SDS011;29631;49.168;9.848;2023-03-01T03:54:38;11.40;;;9.70;;
40501;SDS011;29631;49.168;9.848;2023-03-01T03:57:07;10.70;;;9.57;;
40501;SDS011;29631;49.168;9.848;2023-03-01T03:59:32;10.38;;;9.35;;
40501;SDS011;29631;49.168;9.848;2023-03-01T04:01:58;11.48;;;8.95;;
40501;SDS011;29631;49.168;9.848;2023-03-01T04:04:24;10.38;;;8.93;;
40501;SDS011;29631;49.168;9.848;2023-03-01T04:06:49;9.93;;;9.02;;
40501;SDS011;29631;49.168;9.848;2023-03-01T04:09:15;10.90;;;9.25;;
40501;SDS011;29631;49.168;9.848;2023-03-01T04:11:41;10.25;;;9.18;;
40501;SDS011;29631;49.168;9.848;2023-03-01T04:14:06;10.57;;;9.48;;
40501;SDS011;29631;49.168;9.848;2023-03-01T04:16:32;10.85;;;9.75;;
40501;SDS011;29631;49.168;9.848;2023-03-01T04:18:58;10.38;;;9.32;;
40501;SDS011;29631;49.168;9.848;2023-03-01T04:21:25;9.57;;;8.68;;
40501;SDS011;29631;49.168;9.848;2023-03-01T04:23:51;10.07;;;9.13;;
40501;SDS011;29631;49.168;9.848;2023-03-01T04:26:17;11.50;;;10.35;;
40501;SDS011;29631;49.168;9.848;2023-03-01T04:28:45;11.98;;;10.02;;
40501;SDS011;29631;49.168;9.848;2023-03-01T04:31:14;11.80;;;9.35;;
40501;SDS011;29631;49.168;9.848;2023-03-01T04:36:19;10.80;;;9.70;;
40501;SDS011;29631;49.168;9.848;2023-03-01T04:38:49;13.38;;;10.05;;
40501;SDS011;29631;49.168;9.848;2023-03-01T04:41:16;10.65;;;9.60;;
40501;SDS011;29631;49.168;9.848;2023-03-01T04:43:44;11.07;;;9.90;;
40501;SDS011;29631;49.168;9.848;2023-03-01T04:46:11;10.60;;;9.48;;
40501;SDS011;29631;49.168;9.848;2023-03-01T04:48:40;9.98;;;8.98;;
40501;SDS011;29631;49.168;9.848;2023-03-01T04:51:07;11.05;;;9.95;;
40501;SDS011;29631;49.168;9.848;2023-03-01T04:53:34;11.20;;;9.90;;
40501;SDS011;29631;49.168;9.848;2023-03-01T04:56:03;10.85;;;9.65;;
40501;SDS011;29631;49.168;9.848;2023-03-01T04:58:30;11.45;;;10.20;;
40501;SDS011;29631;49.168;9.848;2023-03-01T05:00:56;11.13;;;10.02;;
40501;SDS011;29631;49.168;9.848;2023-03-01T05:03:21;12.80;;;10.98;;
40501;SDS011;29631;49.168;9.848;2023-03-01T05:05:48;11.43;;;10.27;;
40501;SDS011;29631;49.168;9.848;2023-03-01T05:08:16;10.88;;;9.77;;
40501;SDS011;29631;49.168;9.848;2023-03-01T05:10:48;10.52;;;9.52;;
40501;SDS011;29631;49.168;9.848;2023-03-01T05:13:18;11.43;;;10.23;;
40501;SDS011;29631;49.168;9.848;2023-03-01T05:15:58;15.27;;;11.05;;
40501;SDS011;29631;49.168;9.848;2023-03-01T05:18:27;12.45;;;10.13;;
40501;SDS011;29631;49.168;9.848;2023-03-01T05:20:55;14.48;;;10.55;;
40501;SDS011;29631;49.168;9.848;2023-03-01T05:23:29;11.85;;;10.25;;
40501;SDS011;29631;49.168;9.848;2023-03-01T05:25:59;11.27;;;10.15;;
40501;SDS011;29631;49.168;9.848;2023-03-01T05:28:28;12.32;;;10.10;;
40501;SDS011;29631;49.168;9.848;2023-03-01T05:30:55;11.80;;;10.60;;
40501;SDS011;29631;49.168;9.848;2023-03-01T05:33:22;11.55;;;10.40;;
40501;SDS011;29631;49.168;9.848;2023-03-01T05:35:49;11.50;;;10.18;;
40501;SDS011;29631;49.168;9.848;2023-03-01T05:38:16;11.38;;;10.27;;
40501;SDS011;29631;49.168;9.848;2023-03-01T05:40:43;11.93;;;10.75;;
40501;SDS011;29631;49.168;9.848;2023-03-01T05:43:13;11.27;;;9.98;;
40501;SDS011;29631;49.168;9.848;2023-03-01T05:45:40;11.43;;;10.25;;
40501;SDS011;29631;49.168;9.848;2023-03-01T05:48:08;12.00;;;10.70;;
40501;SDS011;29631;49.168;9.848;2023-03-01T05:50:36;12.30;;;10.57;;
40501;SDS011;29631;49.168;9.848;2023-03-01T05:53:13;13.40;;;10.18;;
40501;SDS011;29631;49.168;9.848;2023-03-01T05:55:46;12.40;;;10.10;;
40501;SDS011;29631;49.168;9.848;2023-03-01T05:58:17;13.80;;;10.77;;
40501;SDS011;29631;49.168;9.848;2023-03-01T06:00:45;11.30;;;10.20;;
40501;SDS011;29631;49.168;9.848;2023-03-01T06:03:14;11.50;;;10.40;;
40501;SDS011;29631;49.168;9.848;2023-03-01T06:05:42;11.65;;;10.23;;
40501;SDS011;29631;49.168;9.848;2023-03-01T06:08:09;12.18;;;10.18;;
40501;SDS011;29631;49.168;9.848;2023-03-01T06:10:36;11.80;;;10.60;;
40501;SDS011;29631;49.168;9.848;2023-03-01T06:13:02;12.10;;;10.82;;
40501;SDS011;29631;49.168;9.848;2023-03-01T06:15:28;12.35;;;10.07;;
40501;SDS011;29631;49.168;9.848;2023-03-01T06:17:54;11.00;;;9.90;;
40501;SDS011;29631;49.168;9.848;2023-03-01T06:20:25;11.80;;;10.60;;
40501;SDS011;29631;49.168;9.848;2023-03-01T06:22:52;12.57;;;10.48;;
40501;SDS011;29631;49.168;9.848;2023-03-01T06:25:19;12.13;;;9.93;;
40501;SDS011;29631;49.168;9.848;2023-03-01T06:27:47;13.52;;;9.85;;
40501;SDS011;29631;49.168;9.848;2023-03-01T06:30:15;10.95;;;9.88;;
40501;SDS011;29631;49.168;9.848;2023-03-01T06:32:43;11.48;;;10.27;;
40501;SDS011;29631;49.168;9.848;2023-03-01T06:35:10;10.93;;;9.82;;
40501;SDS011;29631;49.168;9.848;2023-03-01T06:37:38;12.93;;;10.82;;
40501;SDS011;29631;49.168;9.848;2023-03-01T06:40:05;11.15;;;10.00;;
40501;SDS011;29631;49.168;9.848;2023-03-01T06:42:33;10.82;;;9.73;;
40501;SDS011;29631;49.168;9.848;2023-03-01T06:45:00;12.73;;;10.52;;
40501;SDS011;29631;49.168;9.848;2023-03-01T06:47:26;12.90;;;10.57;;
40501;SDS011;29631;49.168;9.848;2023-03-01T06:49:52;10.57;;;9.57;;
40501;SDS011;29631;49.168;9.848;2023-03-01T06:52:18;11.43;;;10.13;;
40501;SDS011;29631;49.168;9.848;2023-03-01T06:54:43;11.32;;;10.23;;
40501;SDS011;29631;49.168;9.848;2023-03-01T06:57:09;11.05;;;9.95;;
40501;SDS011;29631;49.168;9.848;2023-03-01T06:59:35;11.65;;;10.38;;
40501;SDS011;29631;49.168;9.848;2023-03-01T07:02:00;12.52;;;10.82;;
40501;SDS011;29631;49.168;9.848;2023-03-01T07:04:26;12.02;;;10.77;;
40501;SDS011;29631;49.168;9.848;2023-03-01T07:06:53;10.95;;;9.82;;
40501;SDS011;29631;49.168;9.848;2023-03-01T07:09:20;13.32;;;9.68;;
40501;SDS011;29631;49.168;9.848;2023-03-01T07:11:48;11.23;;;10.10;;
40501;SDS011;29631;49.168;9.848;2023-03-01T07:14:14;11.90;;;10.80;;
40501;SDS011;29631;49.168;9.848;2023-03-01T07:16:40;16.88;;;10.50;;
40501;SDS011;29631;49.168;9.848;2023-03-01T07:19:06;11.98;;;10.45;;
40501;SDS011;29631;49.168;9.848;2023-03-01T07:21:31;11.82;;;10.63;;
40501;SDS011;29631;49.168;9.848;2023-03-01T07:23:57;11.80;;;10.60;;
40501;SDS011;29631;49.168;9.848;2023-03-01T07:26:23;16.10;;;11.57;;
40501;SDS011;29631;49.168;9.848;2023-03-01T07:28:49;12.02;;;10.82;;
40501;SDS011;29631;49.168;9.848;2023-03-01T07:31:14;14.27;;;10.70;;
40501;SDS011;29631;49.168;9.848;2023-03-01T07:33:40;11.75;;;9.93;;
40501;SDS011;29631;49.168;9.848;2023-03-01T07:36:06;11.77;;;10.57;;
40501;SDS011;29631;49.168;9.848;2023-03-01T07:38:32;11.10;;;9.43;;
40501;SDS011;29631;49.168;9.848;2023-03-01T07:41:02;12.00;;;10.68;;
40501;SDS011;29631;49.168;9.848;2023-03-01T07:43:29;12.13;;;10.73;;
40501;SDS011;29631;49.168;9.848;2023-03-01T07:45:58;11.55;;;10.43;;
40501;SDS011;29631;49.168;9.848;2023-03-01T07:48:25;11.45;;;10.25;;
40501;SDS011;29631;49.168;9.848;2023-03-01T07:50:51;12.68;;;11.20;;
40501;SDS011;29631;49.168;9.848;2023-03-01T07:53:16;12.10;;;10.93;;
40501;SDS011;29631;49.168;9.848;2023-03-01T07:55:42;13.60;;;10.25;;
40501;SDS011;29631;49.168;9.848;2023-03-01T07:58:08;12.20;;;11.00;;
40501;SDS011;29631;49.168;9.848;2023-03-01T08:00:33;11.23;;;10.13;;
40501;SDS011;29631;49.168;9.848;2023-03-01T08:02:59;11.32;;;10.10;;
40501;SDS011;29631;49.168;9.848;2023-03-01T08:05:26;11.20;;;10.10;;
40501;SDS011;29631;49.168;9.848;2023-03-01T08:07:53;12.32;;;10.77;;
40501;SDS011;29631;49.168;9.848;2023-03-01T08:10:19;12.25;;;11.00;;
40501;SDS011;29631;49.168;9.848;2023-03-01T08:12:45;12.52;;;10.98;;
40501;SDS011;29631;49.168;9.848;2023-03-01T08:15:11;12.88;;;10.93;;
40501;SDS011;29631;49.168;9.848;2023-03-01T08:17:37;11.18;;;10.07;;
40501;SDS011;29631;49.168;9.848;2023-03-01T08:20:03;11.85;;;10.65;;
40501;SDS011;29631;49.168;9.848;2023-03-01T08:22:31;11.27;;;10.18;;
40501;SDS011;29631;49.168;9.848;2023-03-01T08:24:57;13.90;;;11.27;;
40501;SDS011;29631;49.168;9.848;2023-03-01T08:27:23;13.15;;;11.75;;
40501;SDS011;29631;49.168;9.848;2023-03-01T08:29:49;13.63;;;11.57;;
40501;SDS011;29631;49.168;9.848;2023-03-01T08:32:14;12.18;;;10.98;;
40501;SDS011;29631;49.168;9.848;2023-03-01T08:34:40;12.27;;;11.05;;
40501;SDS011;29631;49.168;9.848;2023-03-01T08:37:06;12.95;;;11.55;;
40501;SDS011;29631;49.168;9.848;2023-03-01T08:39:31;12.80;;;11.50;;
40501;SDS011;29631;49.168;9.848;2023-03-01T08:41:57;12.85;;;11.55;;
40501;SDS011;29631;49.168;9.848;2023-03-01T08:44:23;12.73;;;11.40;;
40501;SDS011;29631;49.168;9.848;2023-03-01T08:46:49;12.40;;;11.20;;
40501;SDS011;29631;49.168;9.848;2023-03-01T08:49:17;13.45;;;11.38;;
40501;SDS011;29631;49.168;9.848;2023-03-01T08:51:44;12.55;;;11.25;;
40501;SDS011;29631;49.168;9.848;2023-03-01T08:54:12;12.57;;;11.27;;
40501;SDS011;29631;49.168;9.848;2023-03-01T08:56:41;12.82;;;11.25;;
40501;SDS011;29631;49.168;9.848;2023-03-01T08:59:07;12.75;;;11.50;;
40501;SDS011;29631;49.168;9.848;2023-03-01T09:01:35;14.40;;;12.90;;
40501;SDS011;29631;49.168;9.848;2023-03-01T09:04:01;13.50;;;12.18;;
40501;SDS011;29631;49.168;9.848;2023-03-01T09:06:32;13.82;;;12.45;;
40501;SDS011;29631;49.168;9.848;2023-03-01T09:08:58;13.95;;;12.55;;
40501;SDS011;29631;49.168;9.848;2023-03-01T09:11:26;13.10;;;11.90;;
40501;SDS011;29631;49.168;9.848;2023-03-01T09:13:53;13.45;;;12.05;;
40501;SDS011;29631;49.168;9.848;2023-03-01T09:16:20;13.75;;;12.35;;
40501;SDS011;29631;49.168;9.848;2023-03-01T09:18:51;12.80;;;11.60;;
40501;SDS011;29631;49.168;9.848;2023-03-01T09:21:19;12.10;;;11.00;;
40501;SDS011;29631;49.168;9.848;2023-03-01T09:23:48;13.52;;;12.27;;
40501;SDS011;29631;49.168;9.848;2023-03-01T09:26:15;12.43;;;11.30;;
40501;SDS011;29631;49.168;9.848;2023-03-01T09:28:47;12.95;;;11.65;;
40501;SDS011;29631;49.168;9.848;2023-03-01T09:31:16;14.75;;;13.13;;
40501;SDS011;29631;49.168;9.848;2023-03-01T09:33:45;13.13;;;11.93;;
40501;SDS011;29631;49.168;9.848;2023-03-01T09:36:15;12.70;;;11.60;;
40501;SDS011;29631;49.168;9.848;2023-03-01T09:38:45;13.18;;;11.85;;
40501;SDS011;29631;49.168;9.848;2023-03-01T09:43:48;13.13;;;11.93;;
40501;SDS011;29631;49.168;9.848;2023-03-01T09:46:22;13.63;;;12.40;;
40501;SDS011;29631;49.168;9.848;2023-03-01T09:48:57;15.40;;;11.55;;
40501;SDS011;29631;49.168;9.848;2023-03-01T09:51:32;12.65;;;11.55;;
40501;SDS011;29631;49.168;9.848;2023-03-01T09:54:01;13.30;;;12.13;;
40501;SDS011;29631;49.168;9.848;2023-03-01T09:56:33;13.18;;;12.05;;
40501;SDS011;29631;49.168;9.848;2023-03-01T09:59:19;13.20;;;12.00;;
40501;SDS011;29631;49.168;9.848;2023-03-01T10:01:59;12.80;;;11.60;;
40501;SDS011;29631;49.168;9.848;2023-03-01T10:07:45;12.45;;;11.30;;
40501;SDS011;29631;49.168;9.848;2023-03-01T10:12:54;13.23;;;12.02;;
40501;SDS011;29631;49.168;9.848;2023-03-01T10:15:34;13.70;;;12.52;;
40501;SDS011;29631;49.168;9.848;2023-03-01T10:18:26;13.50;;;12.30;;
40501;SDS011;29631;49.168;9.848;2023-03-01T10:21:02;13.23;;;11.95;;
40501;SDS011;29631;49.168;9.848;2023-03-01T10:23:44;13.50;;;12.23;;
40501;SDS011;29631;49.168;9.848;2023-03-01T10:26:18;13.50;;;12.20;;
40501;SDS011;29631;49.168;9.848;2023-03-01T10:29:03;14.07;;;11.13;;
40501;SDS011;29631;49.168;9.848;2023-03-01T10:31:36;13.07;;;11.93;;
40501;SDS011;29631;49.168;9.848;2023-03-01T10:34:35;13.02;;;11.82;;
40501;SDS011;29631;49.168;9.848;2023-03-01T10:37:13;13.25;;;11.85;;
40501;SDS011;29631;49.168;9.848;2023-03-01T10:39:56;13.73;;;12.43;;
40501;SDS011;29631;49.168;9.848;2023-03-01T10:42:38;12.70;;;11.45;;
40501;SDS011;29631;49.168;9.848;2023-03-01T10:45:16;13.18;;;11.88;;
40501;SDS011;29631;49.168;9.848;2023-03-01T10:48:08;13.52;;;12.27;;
40501;SDS011;29631;49.168;9.848;2023-03-01T10:50:39;14.25;;;12.40;;
40501;SDS011;29631;49.168;9.848;2023-03-01T10:58:36;13.85;;;12.63;;
40501;SDS011;29631;49.168;9.848;2023-03-01T11:01:05;14.35;;;12.85;;
40501;SDS011;29631;49.168;9.848;2023-03-01T11:04:10;12.88;;;11.65;;
40501;SDS011;29631;49.168;9.848;2023-03-01T11:06:37;13.23;;;12.02;;
40501;SDS011;29631;49.168;9.848;2023-03-01T11:09:18;12.68;;;11.52;;
40501;SDS011;29631;49.168;9.848;2023-03-01T11:11:52;13.50;;;12.20;;
40501;SDS011;29631;49.168;9.848;2023-03-01T11:14:30;12.63;;;11.55;;
40501;SDS011;29631;49.168;9.848;2023-03-01T11:17:03;12.98;;;11.77;;
40501;SDS011;29631;49.168;9.848;2023-03-01T11:20:01;13.27;;;12.00;;
40501;SDS011;29631;49.168;9.848;2023-03-01T11:22:37;12.85;;;11.63;;
40501;SDS011;29631;49.168;9.848;2023-03-01T11:25:16;12.98;;;11.82;;
40501;SDS011;29631;49.168;9.848;2023-03-01T11:27:46;12.68;;;11.55;;
40501;SDS011;29631;49.168;9.848;2023-03-01T11:30:15;14.30;;;12.50;;
40501;SDS011;29631;49.168;9.848;2023-03-01T11:36:13;12.57;;;11.25;;
40501;SDS011;29631;49.168;9.848;2023-03-01T11:39:16;12.80;;;11.27;;
40501;SDS011;29631;49.168;9.848;2023-03-01T11:41:56;12.48;;;11.38;;
40501;SDS011;29631;49.168;9.848;2023-03-01T11:44:51;12.23;;;11.05;;
40501;SDS011;29631;49.168;9.848;2023-03-01T11:47:38;13.70;;;11.40;;
40501;SDS011;29631;49.168;9.848;2023-03-01T12:04:48;12.27;;;11.18;;
40501;SDS011;29631;49.168;9.848;2023-03-01T12:10:23;12.00;;;10.85;;
40501;SDS011;29631;49.168;9.848;2023-03-01T12:16:52;12.85;;;11.52;;
40501;SDS011;29631;49.168;9.848;2023-03-01T12:26:34;11.52;;;10.32;;
40501;SDS011;29631;49.168;9.848;2023-03-01T12:40:26;12.70;;;11.40;;
40501;SDS011;29631;49.168;9.848;2023-03-01T12:43:32;11.48;;;10.43;;
40501;SDS011;29631;49.168;9.848;2023-03-01T12:46:10;11.77;;;10.50;;
40501;SDS011;29631;49.168;9.848;2023-03-01T12:52:01;12.27;;;11.15;;
40501;SDS011;29631;49.168;9.848;2023-03-01T12:54:45;12.30;;;11.10;;
40501;SDS011;29631;49.168;9.848;2023-03-01T13:00:03;12.10;;;10.85;;
40501;SDS011;29631;49.168;9.848;2023-03-01T13:08:58;11.00;;;10.05;;
40501;SDS011;29631;49.168;9.848;2023-03-01T13:11:43;11.55;;;10.55;;
40501;SDS011;29631;49.168;9.848;2023-03-01T13:16:50;12.68;;;11.48;;
40501;SDS011;29631;49.168;9.848;2023-03-01T13:19:18;12.15;;;11.02;;
40501;SDS011;29631;49.168;9.848;2023-03-01T13:21:54;14.07;;;11.35;;
40501;SDS011;29631;49.168;9.848;2023-03-01T13:29:43;11.35;;;10.15;;
40501;SDS011;29631;49.168;9.848;2023-03-01T13:32:27;11.40;;;10.20;;
40501;SDS011;29631;49.168;9.848;2023-03-01T13:35:02;11.13;;;10.13;;
40501;SDS011;29631;49.168;9.848;2023-03-01T13:37:48;11.27;;;10.18;;
40501;SDS011;29631;49.168;9.848;2023-03-01T13:42:48;11.57;;;10.43;;
40501;SDS011;29631;49.168;9.848;2023-03-01T13:45:24;10.95;;;9.77;;
40501;SDS011;29631;49.168;9.848;2023-03-01T13:48:01;11.27;;;10.20;;
40501;SDS011;29631;49.168;9.848;2023-03-01T13:50:46;11.10;;;10.20;;
40501;SDS011;29631;49.168;9.848;2023-03-01T13:53:20;11.38;;;10.38;;
40501;SDS011;29631;49.168;9.848;2023-03-01T13:55:51;11.55;;;10.63;;
40501;SDS011;29631;49.168;9.848;2023-03-01T13:58:26;11.32;;;10.35;;
40501;SDS011;29631;49.168;9.848;2023-03-01T14:00:56;11.65;;;10.50;;
40501;SDS011;29631;49.168;9.848;2023-03-01T14:03:24;12.07;;;10.98;;
40501;SDS011;29631;49.168;9.848;2023-03-01T14:06:00;12.35;;;11.15;;
40501;SDS011;29631;49.168;9.848;2023-03-01T14:08:33;11.10;;;10.18;;
40501;SDS011;29631;49.168;9.848;2023-03-01T14:19:45;10.25;;;9.45;;
40501;SDS011;29631;49.168;9.848;2023-03-01T14:22:18;11.88;;;10.77;;
40501;SDS011;29631;49.168;9.848;2023-03-01T14:25:19;11.32;;;10.23;;
40501;SDS011;29631;49.168;9.848;2023-03-01T14:27:58;11.40;;;10.40;;
40501;SDS011;29631;49.168;9.848;2023-03-01T14:30:46;11.35;;;10.35;;
40501;SDS011;29631;49.168;9.848;2023-03-01T14:38:40;11.18;;;10.23;;
40501;SDS011;29631;49.168;9.848;2023-03-01T14:41:15;11.27;;;10.38;;
40501;SDS011;29631;49.168;9.848;2023-03-01T14:44:05;10.57;;;9.48;;
40501;SDS011;29631;49.168;9.848;2023-03-01T14:46:38;11.20;;;10.30;;
40501;SDS011;29631;49.168;9.848;2023-03-01T14:49:12;9.95;;;9.05;;
40501;SDS011;29631;49.168;9.848;2023-03-01T14:51:57;11.35;;;9.70;;
40501;SDS011;29631;49.168;9.848;2023-03-01T14:54:40;10.65;;;9.73;;
40501;SDS011;29631;49.168;9.848;2023-03-01T14:57:13;10.05;;;9.13;;
40501;SDS011;29631;49.168;9.848;2023-03-01T14:59:42;10.68;;;9.77;;
40501;SDS011;29631;49.168;9.848;2023-03-01T15:02:11;10.20;;;9.32;;
40501;SDS011;29631;49.168;9.848;2023-03-01T15:05:01;11.85;;;9.93;;
40501;SDS011;29631;49.168;9.848;2023-03-01T15:07:30;10.40;;;9.40;;
40501;SDS011;29631;49.168;9.848;2023-03-01T15:10:24;10.70;;;9.70;;
40501;SDS011;29631;49.168;9.848;2023-03-01T15:13:19;10.43;;;9.57;;
40501;SDS011;29631;49.168;9.848;2023-03-01T15:15:49;10.65;;;9.65;;
40501;SDS011;29631;49.168;9.848;2023-03-01T15:18:19;10.15;;;9.35;;
40501;SDS011;29631;49.168;9.848;2023-03-01T15:20:50;10.52;;;9.63;;
40501;SDS011;29631;49.168;9.848;2023-03-01T15:23:18;9.80;;;8.95;;
40501;SDS011;29631;49.168;9.848;2023-03-01T15:25:48;10.40;;;9.40;;
40501;SDS011;29631;49.168;9.848;2023-03-01T15:28:21;9.85;;;9.02;;
40501;SDS011;29631;49.168;9.848;2023-03-01T15:30:56;9.85;;;8.95;;
40501;SDS011;29631;49.168;9.848;2023-03-01T15:33:50;10.35;;;9.35;;
40501;SDS011;29631;49.168;9.848;2023-03-01T15:42:06;9.95;;;9.10;;
40501;SDS011;29631;49.168;9.848;2023-03-01T15:44:37;10.13;;;9.13;;
40501;SDS011;29631;49.168;9.848;2023-03-01T15:47:46;10.63;;;9.73;;
40501;SDS011;29631;49.168;9.848;2023-03-01T15:50:11;9.18;;;8.40;;
40501;SDS011;29631;49.168;9.848;2023-03-01T15:52:48;10.15;;;9.20;;
40501;SDS011;29631;49.168;9.848;2023-03-01T15:55:20;10.60;;;9.60;;
40501;SDS011;29631;49.168;9.848;2023-03-01T15:57:49;10.82;;;9.75;;
40501;SDS011;29631;49.168;9.848;2023-03-01T16:00:23;10.32;;;9.43;;
40501;SDS011;29631;49.168;9.848;2023-03-01T16:02:49;11.32;;;10.20;;
40501;SDS011;29631;49.168;9.848;2023-03-01T16:05:19;10.60;;;9.60;;
40501;SDS011;29631;49.168;9.848;2023-03-01T16:07:55;11.57;;;9.85;;
40501;SDS011;29631;49.168;9.848;2023-03-01T16:10:21;10.80;;;9.82;;
40501;SDS011;29631;49.168;9.848;2023-03-01T16:12:48;11.52;;;10.15;;
40501;SDS011;29631;49.168;9.848;2023-03-01T16:15:19;11.45;;;10.45;;
40501;SDS011;29631;49.168;9.848;2023-03-01T16:17:49;10.80;;;9.90;;
40501;SDS011;29631;49.168;9.848;2023-03-01T16:20:15;10.60;;;9.57;;
40501;SDS011;29631;49.168;9.848;2023-03-01T16:22:42;10.98;;;9.93;;
40501;SDS011;29631;49.168;9.848;2023-03-01T16:25:09;11.35;;;10.13;;
40501;SDS011;29631;49.168;9.848;2023-03-01T16:27:37;11.15;;;9.57;;
40501;SDS011;29631;49.168;9.848;2023-03-01T16:30:04;10.60;;;9.60;;
40501;SDS011;29631;49.168;9.848;2023-03-01T16:32:31;10.70;;;9.75;;
40501;SDS011;29631;49.168;9.848;2023-03-01T16:34:57;12.07;;;10.75;;
40501;SDS011;29631;49.168;9.848;2023-03-01T16:37:23;10.75;;;9.65;;
40501;SDS011;29631;49.168;9.848;2023-03-01T16:39:48;11.02;;;10.07;;
40501;SDS011;29631;49.168;9.848;2023-03-01T16:42:17;10.65;;;9.65;;
40501;SDS011;29631;49.168;9.848;2023-03-01T16:44:42;10.95;;;9.95;;
40501;SDS011;29631;49.168;9.848;2023-03-01T16:47:08;11.68;;;10.55;;